createdAt,value
2019-04-25T00:00:47.276Z,13.40
2019-04-25T00:06:52.010Z,13.40
2019-04-25T00:12:54.429Z,13.30
2019-04-25T00:18:57.274Z,13.20
2019-04-25T00:25:15.239Z,13.20
2019-04-25T00:31:09.042Z,13.00
2019-04-25T00:37:13.711Z,13.00
2019-04-25T00:43:16.540Z,12.90
2019-04-25T00:49:18.977Z,12.90
2019-04-25T00:55:28.528Z,12.80
2019-04-25T01:01:31.656Z,12.60
2019-04-25T01:07:34.471Z,12.50
2019-04-25T01:13:36.861Z,12.40
2019-04-25T01:19:39.197Z,12.20
2019-04-25T01:25:44.292Z,12.20
2019-04-25T01:31:46.612Z,12.10
2019-04-25T01:37:57.301Z,12.00
2019-04-25T01:44:04.693Z,11.90
2019-04-25T01:50:07.693Z,11.80
2019-04-25T01:56:11.044Z,11.70
2019-04-25T02:02:15.333Z,11.60
2019-04-25T02:08:19.850Z,11.50
2019-04-25T02:14:23.697Z,11.40
2019-04-25T02:20:26.265Z,11.30
2019-04-25T02:26:28.624Z,11.20
2019-04-25T02:32:31.094Z,11.10
2019-04-25T02:38:34.228Z,11.00
2019-04-25T02:44:38.663Z,10.80
2019-04-25T02:50:44.085Z,10.90
2019-04-25T02:56:47.341Z,10.80
2019-04-25T03:02:49.797Z,10.60
2019-04-25T03:08:54.323Z,10.50
2019-04-25T03:14:56.289Z,10.30
2019-04-25T03:21:06.196Z,10.20
2019-04-25T03:27:07.424Z,10.10
2019-04-25T03:33:13.851Z,10.00
2019-04-25T03:39:16.529Z,9.90
2019-04-25T03:45:19.262Z,9.80
2019-04-25T03:51:23.855Z,9.70
2019-04-25T03:57:26.476Z,9.60
2019-04-25T04:03:28.890Z,9.40
2019-04-25T04:09:33.835Z,9.40
2019-04-25T04:15:40.896Z,9.30
2019-04-25T04:21:56.027Z,9.30
2019-04-25T04:28:04.075Z,9.30
2019-04-25T04:34:04.469Z,9.30
2019-04-25T04:40:07.910Z,10.50
2019-04-25T04:46:17.187Z,12.80
2019-04-25T04:52:18.931Z,14.90
2019-04-25T04:58:21.092Z,16.60
2019-04-25T05:04:34.967Z,18.00
2019-04-25T05:10:37.326Z,19.30
2019-04-25T05:16:39.802Z,20.60
2019-04-25T05:22:42.626Z,21.50
2019-04-25T05:28:45.166Z,22.30
2019-04-25T05:34:49.400Z,22.60
2019-04-25T05:40:56.705Z,23.10
2019-04-25T05:46:59.188Z,23.60
2019-04-25T05:53:04.308Z,23.80
2019-04-25T05:59:06.939Z,24.70
2019-04-25T06:05:09.358Z,24.70
2019-04-25T06:11:17.908Z,24.40
2019-04-25T06:17:34.384Z,25.60
2019-04-25T06:23:46.061Z,25.70
2019-04-25T06:29:58.062Z,26.40
2019-04-25T06:35:58.032Z,27.70
2019-04-25T06:42:01.577Z,28.90
2019-04-25T06:48:11.643Z,29.60
2019-04-25T06:54:14.025Z,30.20
2019-04-25T07:00:19.000Z,30.70
2019-04-25T07:06:25.249Z,30.70
2019-04-25T07:12:31.227Z,30.30
2019-04-25T07:18:35.882Z,29.80
2019-04-25T07:24:37.141Z,30.40
2019-04-25T07:30:54.947Z,30.60
2019-04-25T07:36:58.153Z,31.50
2019-04-25T07:43:01.568Z,31.20
2019-04-25T07:49:04.370Z,32.10
2019-04-25T07:55:07.123Z,32.40
2019-04-25T08:01:10.944Z,33.20
2019-04-25T08:07:14.247Z,32.70
2019-04-25T08:13:16.964Z,32.90
2019-04-25T08:19:21.516Z,31.80
2019-04-25T08:25:24.097Z,32.10
2019-04-25T08:31:26.475Z,32.20
2019-04-25T08:37:29.564Z,31.60
2019-04-25T08:43:36.338Z,31.20
2019-04-25T08:49:40.112Z,31.50
2019-04-25T08:55:50.204Z,31.50
2019-04-25T09:02:00.441Z,32.40
2019-04-25T09:08:04.679Z,30.60
2019-04-25T09:14:08.230Z,32.40
2019-04-25T09:20:15.155Z,31.00
2019-04-25T09:26:19.871Z,30.20
2019-04-25T09:32:23.860Z,31.30
2019-04-25T09:38:26.815Z,30.90
2019-04-25T09:44:48.019Z,30.60
2019-04-25T09:50:56.516Z,29.10
2019-04-25T09:57:11.473Z,27.90
2019-04-25T10:03:19.149Z,27.70
2019-04-25T10:09:33.738Z,28.50
2019-04-25T10:15:54.593Z,28.40
2019-04-25T10:21:57.859Z,28.80
2019-04-25T10:28:04.408Z,28.70
2019-04-25T10:34:08.991Z,28.60
2019-04-25T10:40:13.407Z,27.90
2019-04-25T10:46:16.678Z,28.10
2019-04-25T10:52:23.363Z,28.10
2019-04-25T10:58:28.075Z,27.90
2019-04-25T11:04:44.580Z,27.50
2019-04-25T11:10:49.875Z,27.30
2019-04-25T11:16:53.490Z,26.90
2019-04-25T11:22:57.145Z,26.70
2019-04-25T11:28:59.577Z,27.00
2019-04-25T11:35:04.872Z,26.90
2019-04-25T11:41:09.707Z,26.70
2019-04-25T11:47:14.459Z,26.80
2019-04-25T11:53:17.174Z,26.90
2019-04-25T11:59:23.538Z,26.90
2019-04-25T12:05:26.408Z,27.00
2019-04-25T12:11:29.019Z,27.10
2019-04-25T12:17:31.767Z,27.20
2019-04-25T12:23:34.196Z,27.30
2019-04-25T12:29:38.874Z,27.50
2019-04-25T12:35:43.544Z,27.70
2019-04-25T12:41:48.089Z,27.50
2019-04-25T12:47:57.995Z,27.50
2019-04-25T12:54:06.837Z,28.10
2019-04-25T13:00:14.147Z,28.30
2019-04-25T13:06:17.326Z,28.60
2019-04-25T13:12:23.382Z,28.60
2019-04-25T13:18:33.376Z,28.60
2019-04-25T13:24:41.300Z,28.60
2019-04-25T13:30:59.982Z,28.50
2019-04-25T13:36:58.152Z,28.90
2019-04-25T13:43:07.685Z,29.20
2019-04-25T13:49:09.862Z,28.70
2019-04-25T13:55:21.324Z,28.50
2019-04-25T14:01:33.847Z,28.90
2019-04-25T14:07:38.268Z,28.60
2019-04-25T14:14:01.987Z,28.60
2019-04-25T14:20:23.353Z,28.80
2019-04-25T14:26:51.421Z,28.80
2019-04-25T14:32:55.842Z,28.90
2019-04-25T14:39:00.134Z,28.70
2019-04-25T14:45:04.999Z,28.50
2019-04-25T14:51:14.836Z,28.30
2019-04-25T14:57:22.937Z,28.30
2019-04-25T15:03:33.043Z,28.10
2019-04-25T15:09:36.357Z,28.00
2019-04-25T15:15:40.157Z,28.00
2019-04-25T15:21:43.728Z,27.90
2019-04-25T15:27:48.453Z,27.60
2019-04-25T15:33:52.673Z,27.50
2019-04-25T15:39:57.222Z,27.30
2019-04-25T15:46:05.319Z,27.50
2019-04-25T15:52:13.142Z,27.70
2019-04-25T15:58:15.714Z,27.60
2019-04-25T16:04:20.477Z,27.30
2019-04-25T16:10:23.039Z,27.10
2019-04-25T16:16:26.748Z,26.90
2019-04-25T16:22:30.220Z,26.70
2019-04-25T16:28:32.529Z,26.50
2019-04-25T16:34:34.889Z,26.50
2019-04-25T16:40:37.478Z,26.40
2019-04-25T16:46:40.481Z,26.20
2019-04-25T16:52:42.805Z,26.20
2019-04-25T16:58:45.506Z,26.20
2019-04-25T17:04:48.020Z,26.00
2019-04-25T17:10:50.477Z,25.90
2019-04-25T17:16:54.718Z,25.80
2019-04-25T17:22:59.268Z,25.50
2019-04-25T17:29:03.410Z,25.20
2019-04-25T17:35:08.055Z,24.80
2019-04-25T17:41:10.595Z,24.50
2019-04-25T17:47:13.897Z,24.10
2019-04-25T17:53:18.899Z,23.70
2019-04-25T17:59:21.679Z,23.20
2019-04-25T18:05:26.706Z,22.80
2019-04-25T18:11:30.498Z,22.30
2019-04-25T18:17:33.938Z,21.90
2019-04-25T18:23:56.135Z,21.50
2019-04-25T18:30:00.824Z,21.10
2019-04-25T18:36:07.146Z,20.70
2019-04-25T18:42:11.192Z,20.40
2019-04-25T18:48:13.455Z,20.00
2019-04-25T18:54:34.383Z,19.70
2019-04-25T19:00:50.831Z,19.50
2019-04-25T19:06:58.040Z,19.40
2019-04-25T19:12:57.801Z,19.20
2019-04-25T19:19:00.007Z,18.90
2019-04-25T19:25:02.459Z,18.80
2019-04-25T19:31:04.780Z,18.60
2019-04-25T19:37:06.967Z,18.40
2019-04-25T19:43:17.564Z,18.20
2019-04-25T19:49:19.947Z,18.00
2019-04-25T19:55:22.142Z,17.70
2019-04-25T20:01:24.505Z,17.50
2019-04-25T20:07:28.712Z,17.30
2019-04-25T20:13:30.985Z,17.10
2019-04-25T20:19:33.335Z,17.00
2019-04-25T20:25:35.586Z,16.80
2019-04-25T20:31:37.761Z,16.60
2019-04-25T20:37:39.975Z,16.50
2019-04-25T20:43:42.285Z,16.30
2019-04-25T20:49:44.457Z,16.20
2019-04-25T20:55:47.503Z,16.00
2019-04-25T21:01:50.318Z,15.90
2019-04-25T21:07:53.651Z,15.90
2019-04-25T21:14:01.294Z,15.90
2019-04-25T21:20:06.349Z,15.90
2019-04-25T21:26:08.666Z,15.80
2019-04-25T21:32:10.969Z,15.60
2019-04-25T21:38:15.248Z,15.40
2019-04-25T21:44:17.734Z,15.60
2019-04-25T21:50:20.060Z,15.60
2019-04-25T21:56:22.763Z,15.60
2019-04-25T22:02:25.355Z,15.50
2019-04-25T22:08:30.956Z,15.30
2019-04-25T22:14:33.128Z,15.10
2019-04-25T22:20:35.478Z,15.00
2019-04-25T22:26:38.154Z,14.90
2019-04-25T22:32:48.771Z,14.80
2019-04-25T22:39:09.474Z,14.70
2019-04-25T22:45:13.617Z,14.70
2019-04-25T22:51:16.682Z,14.50
2019-04-25T22:57:18.906Z,14.40
2019-04-25T23:03:25.871Z,14.30
2019-04-25T23:09:30.048Z,14.20
2019-04-25T23:15:32.516Z,14.10
2019-04-25T23:21:34.810Z,14.00
2019-04-25T23:27:38.964Z,14.10
2019-04-25T23:33:41.066Z,14.00
2019-04-25T23:39:43.795Z,13.90
2019-04-25T23:45:45.898Z,13.90
2019-04-25T23:51:48.392Z,13.80
2019-04-25T23:57:50.494Z,13.70
